Time;durP1;ratioP1;P1;durP2;ratioP2;P2;SDS_P1;SDS_P2;PMS_P1;PMS_P2;Temp;Humidity;BMP_temperature;BMP_pressure;BME280_temperature;BME280_humidity;BME280_pressure;Samples;Min_cycle;Max_cycle;Signal;HPM_P1;HPM_P2
2023/05/27 00:01:18;;;;;;;20.45;5.50;;;;;;;;;;5054545;28;20130;-87
2023/05/27 00:03:44;;;;;;;14.43;4.20;;;;;;;;;;5055828;28;20033;-86
2023/05/27 00:06:10;;;;;;;18.38;4.53;;;;;;;;;;5054769;28;20489;-86
2023/05/27 00:08:36;;;;;;;22.02;4.63;;;;;;;;;;5054496;28;20049;-87
2023/05/27 00:11:02;;;;;;;15.40;4.57;;;;;;;;;;5054825;28;20033;-86
2023/05/27 00:13:28;;;;;;;15.88;4.05;;;;;;;;;;5054695;28;20448;-86
2023/05/27 00:15:55;;;;;;;13.25;4.20;;;;;;;;;;5054597;28;20485;-86
2023/05/27 00:18:21;;;;;;;14.23;4.47;;;;;;;;;;5054346;28;20106;-86
2023/05/27 00:20:48;;;;;;;17.05;4.78;;;;;;;;;;5054039;28;20083;-86
2023/05/27 00:23:14;;;;;;;15.73;4.53;;;;;;;;;;5053674;28;20098;-87
2023/05/27 00:25:41;;;;;;;18.05;4.80;;;;;;;;;;5034528;28;20064;-87
2023/05/27 00:28:07;;;;;;;14.30;4.18;;;;;;;;;;5052658;28;20049;-86
2023/05/27 00:30:33;;;;;;;19.80;4.47;;;;;;;;;;5043049;28;20041;-87
2023/05/27 00:32:59;;;;;;;12.90;4.63;;;;;;;;;;5050831;28;20037;-87
2023/05/27 00:35:25;;;;;;;17.20;4.85;;;;;;;;;;5055063;28;20453;-86
2023/05/27 00:37:51;;;;;;;21.67;4.78;;;;;;;;;;5053757;28;20127;-87
2023/05/27 00:40:20;;;;;;;16.17;4.85;;;;;;;;;;5053595;28;20045;-87
2023/05/27 00:42:46;;;;;;;15.25;4.97;;;;;;;;;;5055081;28;20045;-87
2023/05/27 00:45:13;;;;;;;15.50;4.30;;;;;;;;;;5053537;28;20044;-87
2023/05/27 00:47:39;;;;;;;13.73;4.25;;;;;;;;;;5041834;28;20046;-87
2023/05/27 00:50:07;;;;;;;14.77;4.80;;;;;;;;;;5085043;28;20106;-86
2023/05/27 00:52:34;;;;;;;18.77;4.65;;;;;;;;;;5053710;28;20068;-86
2023/05/27 00:55:00;;;;;;;15.77;4.70;;;;;;;;;;5053389;28;20084;-86
2023/05/27 00:57:26;;;;;;;16.23;4.70;;;;;;;;;;5036633;28;20069;-87
2023/05/27 00:59:52;;;;;;;15.40;4.70;;;;;;;;;;5053373;28;20075;-87
2023/05/27 01:02:20;;;;;;;15.73;5.03;;;;;;;;;;5036602;28;20116;-86
2023/05/27 01:04:46;;;;;;;13.85;4.10;;;;;;;;;;5053087;28;20099;-87
2023/05/27 01:07:16;;;;;;;16.45;5.22;;;;;;;;;;5036649;28;20132;-87
2023/05/27 01:09:42;;;;;;;17.35;4.05;;;;;;;;;;5054543;28;20044;-87
2023/05/27 01:12:14;;;;;;;17.25;4.93;;;;;;;;;;5036710;28;20075;-87
2023/05/27 01:14:41;;;;;;;15.90;4.78;;;;;;;;;;5053301;28;20478;-87
2023/05/27 01:17:09;;;;;;;14.50;4.63;;;;;;;;;;5052958;28;20042;-87
2023/05/27 01:19:37;;;;;;;12.38;4.60;;;;;;;;;;5052858;28;20051;-87
2023/05/27 01:22:03;;;;;;;16.30;4.45;;;;;;;;;;5052978;28;20036;-87
2023/05/27 01:24:29;;;;;;;18.45;4.75;;;;;;;;;;5052608;28;20048;-87
2023/05/27 01:26:56;;;;;;;20.20;5.65;;;;;;;;;;5052859;28;20124;-87
2023/05/27 01:29:23;;;;;;;15.02;4.72;;;;;;;;;;5035833;28;20049;-87
2023/05/27 01:32:12;;;;;;;15.48;4.70;;;;;;;;;;5052919;28;20033;-87
2023/05/27 01:34:44;;;;;;;12.43;4.05;;;;;;;;;;5050581;28;20045;-87
2023/05/27 01:37:12;;;;;;;14.07;4.20;;;;;;;;;;5052740;28;20037;-87
2023/05/27 01:39:39;;;;;;;21.35;4.95;;;;;;;;;;5052175;28;20044;-87
2023/05/27 01:42:06;;;;;;;16.35;4.82;;;;;;;;;;5053085;28;20052;-87
2023/05/27 01:44:32;;;;;;;19.40;5.72;;;;;;;;;;5052412;28;20045;-87
2023/05/27 01:46:59;;;;;;;14.15;5.97;;;;;;;;;;5052917;28;20044;-87
2023/05/27 01:49:25;;;;;;;12.68;3.95;;;;;;;;;;5052002;28;20425;-87
2023/05/27 01:51:51;;;;;;;15.43;4.50;;;;;;;;;;5052318;28;20106;-87
2023/05/27 01:54:17;;;;;;;15.18;4.45;;;;;;;;;;5035525;28;20532;-87
2023/05/27 01:56:43;;;;;;;16.00;5.97;;;;;;;;;;5035677;28;20071;-87
2023/05/27 01:59:09;;;;;;;17.42;5.05;;;;;;;;;;5052334;28;20051;-87
2023/05/27 02:01:36;;;;;;;18.85;5.70;;;;;;;;;;5049923;28;20041;-87
2023/05/27 02:04:03;;;;;;;19.33;5.20;;;;;;;;;;5051801;28;20098;-87
2023/05/27 02:06:30;;;;;;;10.00;4.72;;;;;;;;;;5067594;28;20124;-87
2023/05/27 02:08:56;;;;;;;13.35;4.38;;;;;;;;;;5051786;28;20048;-87
2023/05/27 02:11:22;;;;;;;11.85;4.60;;;;;;;;;;5051918;28;20033;-87
2023/05/27 02:13:49;;;;;;;16.77;4.80;;;;;;;;;;5051117;28;20033;-87
2023/05/27 02:16:15;;;;;;;15.05;4.47;;;;;;;;;;5052147;28;20120;-87
2023/05/27 02:18:41;;;;;;;14.60;4.93;;;;;;;;;;5051645;28;20037;-87
2023/05/27 02:21:07;;;;;;;17.50;5.40;;;;;;;;;;5068888;28;20073;-87
2023/05/27 02:23:34;;;;;;;13.30;5.00;;;;;;;;;;5051760;28;20041;-87
2023/05/27 02:26:03;;;;;;;19.85;6.10;;;;;;;;;;5051837;28;20032;-87
2023/05/27 02:28:29;;;;;;;23.08;5.53;;;;;;;;;;5051372;28;20120;-87
2023/05/27 02:30:55;;;;;;;15.70;5.72;;;;;;;;;;5051898;28;20441;-87
2023/05/27 02:33:21;;;;;;;14.85;4.50;;;;;;;;;;5051350;28;20048;-87
2023/05/27 02:35:47;;;;;;;19.10;5.45;;;;;;;;;;5034959;28;20037;-87
2023/05/27 02:38:13;;;;;;;13.93;4.97;;;;;;;;;;5051621;28;20045;-87
2023/05/27 02:40:39;;;;;;;12.82;4.68;;;;;;;;;;5034971;28;20124;-87
2023/05/27 02:43:05;;;;;;;18.05;5.28;;;;;;;;;;5051575;28;20037;-87
2023/05/27 02:45:32;;;;;;;14.38;4.53;;;;;;;;;;5037711;28;20056;-87
2023/05/27 02:48:01;;;;;;;15.35;4.65;;;;;;;;;;5051112;28;20041;-87
2023/05/27 02:50:27;;;;;;;17.95;5.10;;;;;;;;;;5034545;28;20415;-87
2023/05/27 02:52:53;;;;;;;15.90;5.78;;;;;;;;;;5051441;28;20037;-87
2023/05/27 02:55:19;;;;;;;16.77;5.80;;;;;;;;;;5034996;28;20037;-87
2023/05/27 02:57:45;;;;;;;15.27;5.68;;;;;;;;;;5051108;28;20045;-87
2023/05/27 03:00:13;;;;;;;19.15;5.57;;;;;;;;;;5051447;28;20132;-87
2023/05/27 03:02:39;;;;;;;16.30;5.18;;;;;;;;;;5051334;28;20542;-87
2023/05/27 03:05:06;;;;;;;17.15;5.40;;;;;;;;;;5017712;28;20521;-87
2023/05/27 03:07:32;;;;;;;13.65;5.13;;;;;;;;;;5031049;28;20096;-87
2023/05/27 03:09:58;;;;;;;18.05;5.60;;;;;;;;;;5049265;28;20029;-87
2023/05/27 03:12:24;;;;;;;18.73;5.95;;;;;;;;;;5051649;28;20034;-87
2023/05/27 03:14:51;;;;;;;17.77;5.07;;;;;;;;;;5050657;28;20041;-87
2023/05/27 03:17:18;;;;;;;18.50;4.60;;;;;;;;;;5051138;28;20167;-87
2023/05/27 03:19:44;;;;;;;15.57;4.78;;;;;;;;;;5053550;28;20041;-87
2023/05/27 03:22:11;;;;;;;19.20;5.93;;;;;;;;;;5038924;28;20049;-87
2023/05/27 03:24:37;;;;;;;17.10;4.95;;;;;;;;;;5055254;28;20397;-87
2023/05/27 03:27:06;;;;;;;13.05;4.72;;;;;;;;;;5057125;28;20107;-83
2023/05/27 03:29:32;;;;;;;15.77;5.05;;;;;;;;;;5024004;28;20136;-83
2023/05/27 03:31:58;;;;;;;15.88;5.53;;;;;;;;;;5056864;28;20053;-83
2023/05/27 03:34:25;;;;;;;15.85;5.50;;;;;;;;;;5039877;28;20040;-83
2023/05/27 03:36:51;;;;;;;11.65;4.50;;;;;;;;;;5040095;28;20041;-83
2023/05/27 03:39:17;;;;;;;16.08;5.28;;;;;;;;;;5057379;28;20048;-83
2023/05/27 03:41:44;;;;;;;18.25;5.60;;;;;;;;;;5056443;28;20041;-82
2023/05/27 03:44:10;;;;;;;14.85;5.32;;;;;;;;;;5056022;28;20494;-83
2023/05/27 03:46:36;;;;;;;21.88;5.32;;;;;;;;;;5055438;28;20124;-82
2023/05/27 03:49:02;;;;;;;15.20;5.55;;;;;;;;;;5053704;28;20072;-83
2023/05/27 03:51:29;;;;;;;13.23;4.80;;;;;;;;;;5044404;28;20060;-83
2023/05/27 03:53:55;;;;;;;16.23;4.78;;;;;;;;;;5055180;28;20052;-82
2023/05/27 03:56:21;;;;;;;17.55;5.28;;;;;;;;;;5038496;28;20041;-82
2023/05/27 03:58:47;;;;;;;17.27;5.30;;;;;;;;;;5055432;28;20044;-83
2023/05/27 04:01:13;;;;;;;13.55;5.45;;;;;;;;;;5054133;28;20041;-83
2023/05/27 04:03:40;;;;;;;17.27;5.68;;;;;;;;;;5053905;28;20051;-83
2023/05/27 04:06:06;;;;;;;18.02;5.28;;;;;;;;;;5054229;28;20051;-82
2023/05/27 04:08:32;;;;;;;17.38;6.00;;;;;;;;;;5071512;28;20052;-82
2023/05/27 04:10:58;;;;;;;19.02;6.43;;;;;;;;;;5055090;28;20052;-82
2023/05/27 04:13:24;;;;;;;13.25;4.88;;;;;;;;;;5055018;28;20151;-82
2023/05/27 04:15:51;;;;;;;12.27;5.63;;;;;;;;;;5056988;28;20485;-82
2023/05/27 04:18:17;;;;;;;14.85;5.75;;;;;;;;;;5038972;28;20123;-82
2023/05/27 04:20:44;;;;;;;18.35;6.28;;;;;;;;;;5063064;28;20090;-83
2023/05/27 04:23:10;;;;;;;21.05;6.32;;;;;;;;;;5061664;28;20061;-83
2023/05/27 04:25:40;;;;;;;17.10;5.97;;;;;;;;;;5042595;28;20044;-83
2023/05/27 04:28:08;;;;;;;17.63;5.65;;;;;;;;;;5056770;28;20053;-82
2023/05/27 04:30:35;;;;;;;17.65;6.00;;;;;;;;;;5057265;28;20037;-82
2023/05/27 04:33:01;;;;;;;16.48;5.55;;;;;;;;;;5056937;28;20577;-82
2023/05/27 04:35:30;;;;;;;19.85;5.75;;;;;;;;;;5060320;28;20504;-82
2023/05/27 04:37:58;;;;;;;24.50;5.53;;;;;;;;;;5066846;28;20045;-82
2023/05/27 04:40:25;;;;;;;16.45;5.75;;;;;;;;;;5056599;28;20076;-82
2023/05/27 04:42:51;;;;;;;23.25;5.75;;;;;;;;;;5054249;28;20083;-82
2023/05/27 04:45:18;;;;;;;21.23;6.00;;;;;;;;;;5054131;28;20041;-82
2023/05/27 04:47:44;;;;;;;16.67;4.80;;;;;;;;;;5037490;28;20045;-82
2023/05/27 04:50:10;;;;;;;13.93;5.15;;;;;;;;;;5037583;28;20409;-82
2023/05/27 04:52:41;;;;;;;17.00;5.35;;;;;;;;;;5054067;28;20478;-82
2023/05/27 04:55:09;;;;;;;15.70;5.00;;;;;;;;;;5054010;28;20120;-82
2023/05/27 04:57:36;;;;;;;18.25;5.78;;;;;;;;;;5036828;28;20041;-82
2023/05/27 05:02:35;;;;;;;19.88;5.40;;;;;;;;;;5053411;28;20037;-82
2023/05/27 05:05:05;;;;;;;27.55;6.10;;;;;;;;;;5036853;28;20044;-82
2023/05/27 05:07:31;;;;;;;15.18;5.03;;;;;;;;;;5053311;28;20041;-82
2023/05/27 05:09:57;;;;;;;17.27;5.65;;;;;;;;;;5037006;28;20033;-82
2023/05/27 05:12:25;;;;;;;16.08;4.95;;;;;;;;;;5053754;28;20037;-87
2023/05/27 05:14:52;;;;;;;11.40;4.43;;;;;;;;;;5052961;28;20043;-87
2023/05/27 05:17:18;;;;;;;18.70;4.93;;;;;;;;;;5053111;28;20398;-87
2023/05/27 05:19:45;;;;;;;18.75;5.20;;;;;;;;;;5052817;28;20048;-87
2023/05/27 05:22:14;;;;;;;18.00;5.45;;;;;;;;;;5039129;28;20080;-87
2023/05/27 05:24:40;;;;;;;13.75;5.63;;;;;;;;;;5037002;28;20053;-87
2023/05/27 05:27:07;;;;;;;19.42;4.78;;;;;;;;;;5052655;28;20029;-87
2023/05/27 05:29:33;;;;;;;17.67;5.20;;;;;;;;;;5052381;28;20140;-88
2023/05/27 05:31:59;;;;;;;19.33;4.82;;;;;;;;;;5035529;28;20095;-87
2023/05/27 05:34:25;;;;;;;16.50;5.40;;;;;;;;;;5052985;28;20075;-88
2023/05/27 05:36:51;;;;;;;18.20;4.75;;;;;;;;;;5052363;28;20037;-88
2023/05/27 05:39:17;;;;;;;12.43;4.40;;;;;;;;;;5052823;28;20477;-88
2023/05/27 05:41:43;;;;;;;15.73;4.93;;;;;;;;;;5051749;28;20045;-88
2023/05/27 05:44:10;;;;;;;12.07;4.10;;;;;;;;;;5048070;28;20537;-88
2023/05/27 05:46:36;;;;;;;14.57;4.30;;;;;;;;;;5043324;28;20051;-88
2023/05/27 05:49:02;;;;;;;17.13;4.50;;;;;;;;;;5052062;28;20044;-87
2023/05/27 05:51:28;;;;;;;12.70;4.03;;;;;;;;;;5052700;28;20436;-88
2023/05/27 05:53:55;;;;;;;14.50;4.15;;;;;;;;;;5052193;28;20401;-88
2023/05/27 05:56:21;;;;;;;15.95;4.28;;;;;;;;;;5045461;28;20530;-88
2023/05/27 05:58:47;;;;;;;15.18;4.32;;;;;;;;;;5058661;28;20127;-87
2023/05/27 06:01:13;;;;;;;14.63;4.28;;;;;;;;;;5040195;28;20087;-88
2023/05/27 06:03:39;;;;;;;14.48;4.03;;;;;;;;;;5052171;28;20043;-88
2023/05/27 06:06:06;;;;;;;14.05;4.05;;;;;;;;;;5051452;28;20041;-88
2023/05/27 06:08:32;;;;;;;16.77;4.03;;;;;;;;;;5035373;28;20053;-88
2023/05/27 06:10:58;;;;;;;15.70;4.45;;;;;;;;;;5052051;28;20473;-88
2023/05/27 06:13:24;;;;;;;16.02;4.25;;;;;;;;;;5035402;28;20075;-88
2023/05/27 06:15:50;;;;;;;14.00;4.65;;;;;;;;;;5051629;28;20132;-88
2023/05/27 06:18:16;;;;;;;14.43;4.28;;;;;;;;;;5035248;28;20072;-87
2023/05/27 06:20:42;;;;;;;13.50;3.80;;;;;;;;;;5035948;28;20453;-87
2023/05/27 06:23:08;;;;;;;15.55;4.10;;;;;;;;;;5034999;28;20095;-88
2023/05/27 06:25:34;;;;;;;13.63;3.80;;;;;;;;;;5051810;28;20041;-88
2023/05/27 06:28:00;;;;;;;14.93;3.95;;;;;;;;;;5051507;28;20049;-87
2023/05/27 06:30:28;;;;;;;15.73;4.03;;;;;;;;;;5035794;28;20040;-87
2023/05/27 06:32:54;;;;;;;15.85;3.45;;;;;;;;;;5051625;28;20080;-88
2023/05/27 06:35:20;;;;;;;14.02;4.35;;;;;;;;;;5051564;28;20041;-88
2023/05/27 06:37:46;;;;;;;19.02;4.43;;;;;;;;;;5051714;28;20045;-88
2023/05/27 06:40:12;;;;;;;15.02;4.38;;;;;;;;;;5034703;28;20052;-83
2023/05/27 06:42:38;;;;;;;11.77;3.53;;;;;;;;;;5035062;28;20043;-88
2023/05/27 06:45:05;;;;;;;12.63;3.60;;;;;;;;;;5018617;28;20105;-87
2023/05/27 06:47:31;;;;;;;16.80;3.78;;;;;;;;;;5051755;28;20482;-87
2023/05/27 06:49:57;;;;;;;15.55;3.55;;;;;;;;;;5041272;28;20103;-87
2023/05/27 06:52:23;;;;;;;13.45;3.30;;;;;;;;;;5031474;28;20040;-87
2023/05/27 06:54:49;;;;;;;15.13;3.33;;;;;;;;;;5035001;28;20044;-87
2023/05/27 06:57:15;;;;;;;15.02;3.70;;;;;;;;;;5034901;28;20127;-87
2023/05/27 06:59:41;;;;;;;14.65;3.60;;;;;;;;;;5051545;28;20044;-85
2023/05/27 07:02:08;;;;;;;13.60;3.47;;;;;;;;;;5051564;28;20186;-87
2023/05/27 07:04:34;;;;;;;15.20;3.80;;;;;;;;;;5056118;28;20048;-87
2023/05/27 07:07:00;;;;;;;16.00;3.92;;;;;;;;;;5060453;28;20048;-87
2023/05/27 07:09:26;;;;;;;12.57;3.00;;;;;;;;;;5018248;28;20048;-87
2023/05/27 07:11:52;;;;;;;14.68;3.30;;;;;;;;;;5051474;28;20036;-87
2023/05/27 07:14:18;;;;;;;13.77;3.90;;;;;;;;;;5052608;28;20040;-87
2023/05/27 07:16:44;;;;;;;10.88;3.53;;;;;;;;;;5058844;28;20377;-87
2023/05/27 07:19:10;;;;;;;10.35;3.38;;;;;;;;;;5058055;28;20045;-82
2023/05/27 07:21:37;;;;;;;12.80;2.88;;;;;;;;;;5046947;28;20049;-82
2023/05/27 07:24:03;;;;;;;10.05;2.80;;;;;;;;;;5050832;28;20045;-80
2023/05/27 07:26:30;;;;;;;14.55;3.90;;;;;;;;;;5051283;28;20041;-80
2023/05/27 07:28:58;;;;;;;16.13;3.80;;;;;;;;;;5034051;28;20086;-82
2023/05/27 07:31:24;;;;;;;12.85;3.60;;;;;;;;;;5050972;28;20048;-87
2023/05/27 07:33:50;;;;;;;12.48;3.40;;;;;;;;;;5034729;28;20040;-87
2023/05/27 07:36:16;;;;;;;13.10;3.60;;;;;;;;;;5051039;28;20052;-87
2023/05/27 07:38:42;;;;;;;18.05;3.88;;;;;;;;;;5050957;28;20041;-87
2023/05/27 07:41:09;;;;;;;12.57;3.40;;;;;;;;;;5050882;28;20082;-87
2023/05/27 07:43:35;;;;;;;12.00;3.67;;;;;;;;;;5034547;28;20049;-87
2023/05/27 07:46:02;;;;;;;13.15;3.67;;;;;;;;;;5050768;28;20084;-85
2023/05/27 07:48:28;;;;;;;13.25;3.90;;;;;;;;;;5050829;28;20088;-85
2023/05/27 07:50:54;;;;;;;17.63;4.28;;;;;;;;;;5034348;28;20048;-85
2023/05/27 07:53:21;;;;;;;11.88;3.45;;;;;;;;;;5050963;28;20048;-85
2023/05/27 07:55:47;;;;;;;15.57;4.10;;;;;;;;;;5050556;28;20087;-85
2023/05/27 07:58:13;;;;;;;13.77;3.80;;;;;;;;;;5050775;28;20037;-87
2023/05/27 08:00:39;;;;;;;12.20;3.90;;;;;;;;;;5050857;28;20091;-82
2023/05/27 08:03:05;;;;;;;11.32;3.45;;;;;;;;;;5050585;28;20512;-80
2023/05/27 08:05:32;;;;;;;12.85;3.50;;;;;;;;;;5052193;28;20049;-81
2023/05/27 08:07:58;;;;;;;12.45;3.28;;;;;;;;;;5032943;28;20049;-80
2023/05/27 08:10:24;;;;;;;11.45;3.85;;;;;;;;;;5028583;28;20486;-80
2023/05/27 08:12:50;;;;;;;13.68;3.63;;;;;;;;;;5037504;28;20047;-80
2023/05/27 08:15:17;;;;;;;12.20;3.38;;;;;;;;;;5053897;28;20037;-81
2023/05/27 08:17:43;;;;;;;14.40;3.72;;;;;;;;;;5037784;28;20037;-80
2023/05/27 08:20:10;;;;;;;14.65;3.70;;;;;;;;;;5053906;28;20120;-80
2023/05/27 08:22:36;;;;;;;15.02;3.60;;;;;;;;;;5054267;28;20478;-80
2023/05/27 08:25:03;;;;;;;18.95;3.75;;;;;;;;;;5037650;28;20033;-80
2023/05/27 08:27:50;;;;;;;12.10;3.42;;;;;;;;;;5053779;28;20044;-80
2023/05/27 08:30:17;;;;;;;11.93;3.95;;;;;;;;;;5036592;28;20059;-80
2023/05/27 08:32:43;;;;;;;14.45;3.90;;;;;;;;;;5053882;28;20045;-80
2023/05/27 08:35:10;;;;;;;13.52;3.53;;;;;;;;;;5053367;28;20041;-80
2023/05/27 08:37:37;;;;;;;17.40;4.38;;;;;;;;;;5054163;28;20048;-80
2023/05/27 08:40:07;;;;;;;12.10;3.60;;;;;;;;;;5054217;28;20041;-80
2023/05/27 08:42:34;;;;;;;11.77;3.63;;;;;;;;;;5053854;28;20033;-80
2023/05/27 08:45:01;;;;;;;16.90;3.90;;;;;;;;;;5053643;28;20085;-80
2023/05/27 08:47:30;;;;;;;9.98;3.42;;;;;;;;;;5053463;28;20037;-80
2023/05/27 08:49:58;;;;;;;9.82;3.50;;;;;;;;;;5053208;28;20052;-80
2023/05/27 08:52:25;;;;;;;12.27;3.42;;;;;;;;;;5050812;28;20049;-80
2023/05/27 08:54:52;;;;;;;13.95;3.63;;;;;;;;;;5042128;28;20048;-79
2023/05/27 08:57:21;;;;;;;13.15;3.97;;;;;;;;;;5053282;28;20501;-80
2023/05/27 08:59:48;;;;;;;13.05;3.88;;;;;;;;;;5053463;28;20516;-79
2023/05/27 09:02:14;;;;;;;14.85;4.10;;;;;;;;;;5039911;28;20037;-81
2023/05/27 09:04:41;;;;;;;15.63;4.07;;;;;;;;;;5036387;28;20611;-82
2023/05/27 09:07:07;;;;;;;10.40;3.83;;;;;;;;;;5053320;28;20045;-81
2023/05/27 09:09:34;;;;;;;14.80;4.45;;;;;;;;;;5036142;28;20041;-82
2023/05/27 09:12:01;;;;;;;17.73;3.88;;;;;;;;;;5036552;28;20048;-81
2023/05/27 09:14:31;;;;;;;15.55;4.00;;;;;;;;;;5036518;28;20049;-82
2023/05/27 09:16:57;;;;;;;14.02;3.55;;;;;;;;;;5051815;28;20035;-82
2023/05/27 09:19:23;;;;;;;15.75;4.10;;;;;;;;;;5035808;28;20087;-82
2023/05/27 09:21:53;;;;;;;14.45;4.18;;;;;;;;;;5053167;28;20502;-82
2023/05/27 09:24:19;;;;;;;10.85;3.92;;;;;;;;;;5052654;28;20049;-82
2023/05/27 09:26:45;;;;;;;11.75;3.72;;;;;;;;;;5054495;28;20094;-82
2023/05/27 09:29:11;;;;;;;12.10;4.00;;;;;;;;;;5019627;28;20060;-82
2023/05/27 09:31:41;;;;;;;14.32;3.83;;;;;;;;;;5052439;28;20120;-82
2023/05/27 09:34:29;;;;;;;11.63;3.70;;;;;;;;;;5036108;28;20033;-82
2023/05/27 09:36:55;;;;;;;13.82;4.13;;;;;;;;;;5052901;28;20395;-82
2023/05/27 09:39:22;;;;;;;13.93;3.90;;;;;;;;;;5052214;28;20045;-82
2023/05/27 09:42:00;;;;;;;18.58;4.22;;;;;;;;;;5052774;28;20083;-82
2023/05/27 09:44:30;;;;;;;13.85;4.10;;;;;;;;;;5022764;28;20124;-82
2023/05/27 09:46:58;;;;;;;11.60;3.83;;;;;;;;;;5052712;28;20414;-82
2023/05/27 09:49:27;;;;;;;13.43;4.25;;;;;;;;;;5051840;28;20069;-80
2023/05/27 09:51:54;;;;;;;13.02;4.10;;;;;;;;;;5052671;28;20063;-87
2023/05/27 09:54:21;;;;;;;12.70;4.22;;;;;;;;;;5051996;28;20040;-87
2023/05/27 09:56:48;;;;;;;14.40;3.75;;;;;;;;;;5035808;28;20045;-87
2023/05/27 09:59:14;;;;;;;12.27;4.43;;;;;;;;;;5036051;28;20047;-86
2023/05/27 10:01:40;;;;;;;13.95;4.47;;;;;;;;;;5052233;28;20044;-87
2023/05/27 10:04:07;;;;;;;15.00;4.22;;;;;;;;;;5052553;28;20493;-87
2023/05/27 10:06:34;;;;;;;13.07;4.03;;;;;;;;;;5053190;28;20041;-87
2023/05/27 10:09:03;;;;;;;13.68;3.70;;;;;;;;;;5054038;28;20456;-87
2023/05/27 10:11:32;;;;;;;12.95;4.22;;;;;;;;;;5051741;28;20051;-86
2023/05/27 10:14:00;;;;;;;13.63;4.38;;;;;;;;;;5054200;28;20037;-87
2023/05/27 10:16:27;;;;;;;19.63;4.20;;;;;;;;;;5052192;28;20043;-87
2023/05/27 10:18:57;;;;;;;12.85;4.18;;;;;;;;;;5035803;28;20045;-85
2023/05/27 10:21:24;;;;;;;13.48;4.00;;;;;;;;;;5051342;28;20103;-86
2023/05/27 10:23:57;;;;;;;13.25;4.40;;;;;;;;;;5051682;28;20111;-85
2023/05/27 10:26:33;;;;;;;12.35;3.95;;;;;;;;;;5051582;28;20037;-85
2023/05/27 10:29:09;;;;;;;13.07;4.00;;;;;;;;;;5050654;28;20041;-86
2023/05/27 10:31:38;;;;;;;15.15;4.35;;;;;;;;;;5051211;28;20052;-85
2023/05/27 10:34:05;;;;;;;12.20;4.10;;;;;;;;;;5035634;28;20041;-86
2023/05/27 10:36:32;;;;;;;13.68;4.28;;;;;;;;;;5051336;28;20048;-86
2023/05/27 10:39:04;;;;;;;12.95;4.10;;;;;;;;;;5051639;28;20500;-86
2023/05/27 10:41:43;;;;;;;14.93;4.45;;;;;;;;;;5051430;28;20083;-86
2023/05/27 10:44:09;;;;;;;12.63;4.05;;;;;;;;;;5034965;28;20453;-85
2023/05/27 10:46:42;;;;;;;14.60;4.55;;;;;;;;;;5051159;28;20052;-85
2023/05/27 10:49:10;;;;;;;11.68;4.00;;;;;;;;;;5034822;28;20528;-86
2023/05/27 10:51:37;;;;;;;11.18;3.95;;;;;;;;;;5024580;28;20045;-85
2023/05/27 10:54:04;;;;;;;11.45;3.95;;;;;;;;;;5031012;28;20489;-85
2023/05/27 10:56:31;;;;;;;12.23;3.90;;;;;;;;;;5052369;28;20163;-86
2023/05/27 10:58:57;;;;;;;10.50;3.83;;;;;;;;;;5051105;28;20041;-85
2023/05/27 11:01:24;;;;;;;12.35;4.22;;;;;;;;;;5035222;28;20033;-86
2023/05/27 11:03:50;;;;;;;10.90;3.67;;;;;;;;;;5051053;28;20397;-86
2023/05/27 11:06:16;;;;;;;14.10;4.05;;;;;;;;;;5050974;28;20041;-85
2023/05/27 11:08:43;;;;;;;12.05;4.18;;;;;;;;;;5034346;28;20037;-86
2023/05/27 11:11:09;;;;;;;13.75;4.47;;;;;;;;;;5018171;28;20520;-85
2023/05/27 11:13:45;;;;;;;16.08;4.32;;;;;;;;;;5034395;28;20049;-86
2023/05/27 11:16:12;;;;;;;14.57;4.30;;;;;;;;;;5034506;28;20048;-85
2023/05/27 11:18:48;;;;;;;13.10;4.00;;;;;;;;;;5042697;28;20080;-85
2023/05/27 11:21:16;;;;;;;14.43;4.57;;;;;;;;;;5046937;28;20045;-85
2023/05/27 11:23:45;;;;;;;11.90;4.35;;;;;;;;;;5051083;28;20041;-85
2023/05/27 11:26:15;;;;;;;13.40;4.18;;;;;;;;;;5051391;28;20119;-85
2023/05/27 11:28:48;;;;;;;12.23;4.30;;;;;;;;;;5050830;28;20064;-85
2023/05/27 11:31:15;;;;;;;13.00;4.43;;;;;;;;;;5050997;28;20052;-85
2023/05/27 11:33:45;;;;;;;11.70;3.83;;;;;;;;;;5034638;28;20053;-85
2023/05/27 11:36:12;;;;;;;15.40;4.20;;;;;;;;;;5051096;28;20036;-85
2023/05/27 11:38:51;;;;;;;15.57;4.30;;;;;;;;;;5050962;28;20486;-85
2023/05/27 11:41:18;;;;;;;11.75;4.00;;;;;;;;;;5053667;28;20040;-85
2023/05/27 11:43:51;;;;;;;12.55;3.92;;;;;;;;;;5055158;28;20049;-85
2023/05/27 11:46:17;;;;;;;12.88;3.67;;;;;;;;;;5047154;28;20073;-85
2023/05/27 11:48:43;;;;;;;11.77;4.70;;;;;;;;;;5062296;28;20048;-85
2023/05/27 11:51:11;;;;;;;10.52;3.90;;;;;;;;;;5060955;28;20389;-86
2023/05/27 11:53:55;;;;;;;11.60;4.00;;;;;;;;;;5063323;28;20041;-86
2023/05/27 11:56:21;;;;;;;12.27;4.10;;;;;;;;;;5047124;28;20048;-85
2023/05/27 11:58:47;;;;;;;15.18;4.97;;;;;;;;;;5074193;28;20044;-85
2023/05/27 12:01:13;;;;;;;12.90;4.25;;;;;;;;;;5060504;28;20040;-86
2023/05/27 12:03:41;;;;;;;13.45;4.07;;;;;;;;;;5074645;28;20489;-86
2023/05/27 12:06:07;;;;;;;8.15;3.70;;;;;;;;;;5071998;28;20036;-85
2023/05/27 12:08:33;;;;;;;12.80;4.10;;;;;;;;;;5063057;28;20102;-86
2023/05/27 12:10:59;;;;;;;13.70;4.45;;;;;;;;;;5073872;28;20040;-86
2023/05/27 12:13:25;;;;;;;13.38;4.30;;;;;;;;;;5054494;28;20080;-85
2023/05/27 12:15:52;;;;;;;10.45;4.20;;;;;;;;;;5055854;28;20037;-85
2023/05/27 12:18:18;;;;;;;11.48;4.30;;;;;;;;;;5059264;28;20124;-86
2023/05/27 12:20:45;;;;;;;12.27;4.32;;;;;;;;;;5066438;28;20040;-86
2023/05/27 12:23:11;;;;;;;12.40;4.05;;;;;;;;;;5054267;28;20048;-87
2023/05/27 12:25:37;;;;;;;14.05;4.70;;;;;;;;;;5040184;28;20611;-87
2023/05/27 12:28:03;;;;;;;14.60;4.53;;;;;;;;;;5037598;28;20486;-86
2023/05/27 12:30:29;;;;;;;14.65;4.38;;;;;;;;;;5053627;28;20052;-86
2023/05/27 12:32:56;;;;;;;11.90;4.47;;;;;;;;;;5053580;28;20063;-86
2023/05/27 12:35:22;;;;;;;12.57;3.67;;;;;;;;;;5053930;28;20072;-86
2023/05/27 12:37:48;;;;;;;10.23;3.92;;;;;;;;;;5054158;28;20044;-86
2023/05/27 12:40:14;;;;;;;11.45;3.90;;;;;;;;;;5054290;28;20494;-86
2023/05/27 12:42:43;;;;;;;14.85;4.00;;;;;;;;;;5054120;28;20486;-86
2023/05/27 12:45:10;;;;;;;12.90;3.95;;;;;;;;;;5037365;28;20044;-86
2023/05/27 12:47:37;;;;;;;13.07;4.05;;;;;;;;;;5054891;28;20165;-86
2023/05/27 12:50:04;;;;;;;12.25;3.80;;;;;;;;;;5053718;28;20049;-86
2023/05/27 12:52:30;;;;;;;13.60;3.75;;;;;;;;;;5036495;28;20033;-86
2023/05/27 12:54:56;;;;;;;14.80;4.40;;;;;;;;;;5053894;28;20041;-86
2023/05/27 12:57:22;;;;;;;13.68;4.47;;;;;;;;;;5037004;28;20524;-86
2023/05/27 12:59:49;;;;;;;10.95;3.63;;;;;;;;;;5046067;28;20037;-86
2023/05/27 13:02:15;;;;;;;13.68;4.30;;;;;;;;;;5047639;28;20160;-86
2023/05/27 13:04:41;;;;;;;13.15;4.05;;;;;;;;;;5020327;28;20068;-86
2023/05/27 13:07:10;;;;;;;10.90;4.60;;;;;;;;;;5036962;28;20120;-86
2023/05/27 13:09:37;;;;;;;15.73;4.03;;;;;;;;;;5053154;28;20055;-86
2023/05/27 13:12:03;;;;;;;10.60;3.65;;;;;;;;;;5036714;28;20045;-85
2023/05/27 13:14:30;;;;;;;11.77;4.20;;;;;;;;;;5053217;28;20047;-86
2023/05/27 13:16:56;;;;;;;12.93;4.10;;;;;;;;;;5053069;28;20072;-86
2023/05/27 13:19:23;;;;;;;12.32;4.20;;;;;;;;;;5053316;28;20448;-86
2023/05/27 13:21:49;;;;;;;12.02;3.67;;;;;;;;;;5053121;28;20107;-86
2023/05/27 13:24:16;;;;;;;13.13;4.63;;;;;;;;;;5036722;28;20512;-85
2023/05/27 13:26:42;;;;;;;14.63;4.18;;;;;;;;;;5036744;28;20071;-86
2023/05/27 13:29:08;;;;;;;13.35;4.20;;;;;;;;;;5036163;28;20401;-85
2023/05/27 13:31:34;;;;;;;10.88;3.90;;;;;;;;;;5053102;28;20057;-86
2023/05/27 13:34:00;;;;;;;11.52;3.85;;;;;;;;;;5052666;28;20079;-86
2023/05/27 13:36:26;;;;;;;11.52;4.28;;;;;;;;;;5053103;28;20052;-86
2023/05/27 13:38:53;;;;;;;16.98;4.43;;;;;;;;;;5036037;28;20037;-86
2023/05/27 13:41:19;;;;;;;13.07;4.05;;;;;;;;;;5036493;28;20405;-86
2023/05/27 13:43:45;;;;;;;13.98;4.10;;;;;;;;;;5052998;28;20063;-85
2023/05/27 13:46:11;;;;;;;11.40;4.15;;;;;;;;;;5086275;28;20048;-85
2023/05/27 13:48:37;;;;;;;10.55;3.80;;;;;;;;;;5052954;28;20116;-86
2023/05/27 13:51:03;;;;;;;10.80;3.47;;;;;;;;;;5041690;28;20037;-85
2023/05/27 13:53:30;;;;;;;12.45;3.78;;;;;;;;;;5061533;28;20041;-86
2023/05/27 13:55:56;;;;;;;13.25;4.63;;;;;;;;;;5036003;28;20044;-85
2023/05/27 13:58:22;;;;;;;13.05;4.10;;;;;;;;;;5066516;28;20052;-85
2023/05/27 14:00:48;;;;;;;10.27;3.92;;;;;;;;;;5052466;28;20045;-85
2023/05/27 14:03:14;;;;;;;11.63;4.00;;;;;;;;;;5051989;28;20505;-85
2023/05/27 14:05:40;;;;;;;10.32;3.80;;;;;;;;;;5060053;28;20101;-85
2023/05/27 14:08:08;;;;;;;11.73;3.70;;;;;;;;;;5072316;28;20044;-85
2023/05/27 14:10:34;;;;;;;10.13;3.88;;;;;;;;;;5052331;28;20045;-86
2023/05/27 14:13:02;;;;;;;9.73;3.83;;;;;;;;;;5052240;28;20040;-85
2023/05/27 14:15:29;;;;;;;13.90;4.18;;;;;;;;;;5052296;28;20041;-86
2023/05/27 14:17:55;;;;;;;13.95;3.92;;;;;;;;;;5052467;28;20441;-86
2023/05/27 14:20:21;;;;;;;10.43;3.40;;;;;;;;;;5052194;28;20069;-85
2023/05/27 14:22:48;;;;;;;12.65;3.65;;;;;;;;;;5052478;28;20033;-86
2023/05/27 14:25:14;;;;;;;12.70;3.80;;;;;;;;;;5052002;28;20095;-85
2023/05/27 14:27:41;;;;;;;12.02;3.95;;;;;;;;;;5052267;28;20436;-86
2023/05/27 14:30:08;;;;;;;10.13;3.65;;;;;;;;;;5051560;28;20053;-86
2023/05/27 14:32:34;;;;;;;14.35;3.75;;;;;;;;;;5053393;28;20049;-85